Maya — V7MU3 — position and weather

sailwx.info

Track history (hours):
 
Tides and Currents Weather Stations Pressure Air Temp Water Temp Dewpoint Dewpoint Depression Visibility Wind Speed Wind Dir Waves Ship Positions

Maya

Last reported at 2017-Nov-18 00:48 UTC. Time now 2017-Nov-22 15:05 UTC.
Position N 29°32' W 094°54'.

Length 119 m; draft 9.2 m.

Type: Ship (hazmat cat B). MMSI: 538002900.

Date/timePositionNaut miles runAvg speedWind from/ knotsBaromVisibWave heightAir tempDewpointWater temp
2017-Nov-18 00:48N 29°32' W 094°54'3 9.8
2017-Nov-18 00:30N 29°34' W 094°55'4 8.0
2017-Nov-18 00:00N 29°37' W 094°59'2 4.4
2017-Nov-17 23:31N 29°37' W 095°01'0 0.0
2017-Nov-17 22:56N 29°37' W 095°01'0 0.0
2017-Nov-17 22:30N 29°37' W 095°01'0 0.0
2017-Nov-17 22:00N 29°37' W 095°01'0 0.0
2017-Nov-17 21:30N 29°37' W 095°01'0 0.0
2017-Nov-17 21:00N 29°37' W 095°01'0 0.0
2017-Nov-17 20:30N 29°37' W 095°01'0 0.0
2017-Nov-17 20:00N 29°37' W 095°01'0 0.0
2017-Nov-17 19:30N 29°37' W 095°01'0 0.0
2017-Nov-17 19:00N 29°37' W 095°01'0 0.0
2017-Nov-17 18:30N 29°37' W 095°01'0 0.0
2017-Nov-17 18:00N 29°37' W 095°01'0 0.0
2017-Nov-17 17:30N 29°37' W 095°01'0 0.0
2017-Nov-17 17:00N 29°37' W 095°01'0 0.0
2017-Nov-17 16:30N 29°37' W 095°01'0 0.0
2017-Nov-17 16:00N 29°37' W 095°01'0 0.0
2017-Nov-17 15:30N 29°37' W 095°01'0 0.0
2017-Nov-17 15:00N 29°37' W 095°01'0 0.0
2017-Nov-17 14:30N 29°37' W 095°01'0 0.0
2017-Nov-17 14:00N 29°37' W 095°01'0 0.0
2017-Nov-17 13:30N 29°37' W 095°01'0 0.0
2017-Nov-17 13:00N 29°37' W 095°01'0 0.0
2017-Nov-17 12:30N 29°37' W 095°01'0 0.0
2017-Nov-17 12:00N 29°37' W 095°01'0 0.0
2017-Nov-17 11:30N 29°37' W 095°01'0 0.0
2017-Nov-17 11:00N 29°37' W 095°01'0 0.0
2017-Nov-17 10:30N 29°37' W 095°01'0 0.0
2017-Nov-17 10:00N 29°37' W 095°01'0 0.0
2017-Nov-17 09:30N 29°37' W 095°01'0 0.0
2017-Nov-17 09:00N 29°37' W 095°01'0 0.0
2017-Nov-17 08:30N 29°37' W 095°01'0 0.0
2017-Nov-17 08:00N 29°37' W 095°01'0 0.0
2017-Nov-17 07:30N 29°37' W 095°01'0 0.0
2017-Nov-17 07:00N 29°37' W 095°01'0 0.0
2017-Nov-17 06:30N 29°37' W 095°01'0 0.0
2017-Nov-17 06:00N 29°37' W 095°01'0 0.0
2017-Nov-17 05:30N 29°37' W 095°01'0 0.0
2017-Nov-17 05:00N 29°37' W 095°01'0 0.0
2017-Nov-17 04:30N 29°37' W 095°01'0 0.0
2017-Nov-17 04:00N 29°37' W 095°01'0 0.0
2017-Nov-17 03:30N 29°37' W 095°01'0 0.0
2017-Nov-17 03:00N 29°37' W 095°01'0 0.0
2017-Nov-17 02:30N 29°37' W 095°01'0 0.0
2017-Nov-17 02:00N 29°37' W 095°01'0 0.0
2017-Nov-17 01:30N 29°37' W 095°01'0 0.0
2017-Nov-17 01:00N 29°37' W 095°01'0 0.0
2017-Nov-17 00:30N 29°37' W 095°01'0 0.0
2017-Nov-17 00:00N 29°37' W 095°01'0 0.0
2017-Nov-16 23:30N 29°37' W 095°01'0 0.0
2017-Nov-16 23:00N 29°37' W 095°01'0 0.0
2017-Nov-16 22:30N 29°37' W 095°01'0 0.0
2017-Nov-16 22:00N 29°37' W 095°01'2 4.2
2017-Nov-16 21:30N 29°37' W 094°59'5 9.4
2017-Nov-16 21:00N 29°34' W 094°55'612.0
2017-Nov-16 20:30N 29°28' W 094°51'  
2017-Nov-09 05:41N 29°32' W 094°54'2 9.2
2017-Nov-09 05:30N 29°33' W 094°55'5 9.2
2017-Nov-09 05:00N 29°37' W 094°57'5 9.2
2017-Nov-09 04:30N 29°42' W 094°59'4 7.0
2017-Nov-09 03:53N 29°44' W 095°03'2 5.7
2017-Nov-09 03:30N 29°45' W 095°06'3 5.9
2017-Nov-09 03:00N 29°44' W 095°09'3 5.7
2017-Nov-09 02:30N 29°44' W 095°12'3 5.4
2017-Nov-09 02:00N 29°43' W 095°15'1 2.9
2017-Nov-09 01:30N 29°44' W 095°16'0 0.0
2017-Nov-08 12:05N 29°44' W 095°16'0 0.0
2017-Nov-08 11:59N 29°44' W 095°16'0 0.0
2017-Nov-08 11:29N 29°44' W 095°16'0 0.0
2017-Nov-08 10:59N 29°44' W 095°16'0 0.0
2017-Nov-08 10:03N 29°44' W 095°16'0 0.0
2017-Nov-08 09:51N 29°44' W 095°16'0 0.0
2017-Nov-08 08:39N 29°44' W 095°16'0 0.0
2017-Nov-08 08:27N 29°44' W 095°16'0 0.0
2017-Nov-08 07:59N 29°44' W 095°16'0 0.0
2017-Nov-08 07:27N 29°44' W 095°16'0 0.0
2017-Nov-08 04:09N 29°44' W 095°16'0 0.0
2017-Nov-08 03:54N 29°44' W 095°16'0 0.0
2017-Nov-08 02:54N 29°44' W 095°16'0 0.0
2017-Nov-08 02:29N 29°44' W 095°16'1 1.3
2017-Nov-08 01:56N 29°44' W 095°16'4 5.6
2017-Nov-08 01:08N 29°45' W 095°11'1 6.5
2017-Nov-08 00:59N 29°45' W 095°10'  
Track history (hours):
 
Tides and Currents Weather Stations Pressure Air Temp Water Temp Dewpoint Dewpoint Depression Visibility Wind Speed Wind Dir Waves Ship Positions

Maya

Last reported at 2017-Nov-18 00:48 UTC. Time now 2017-Nov-22 15:05 UTC.
Position N 29°32' W 094°54'.

Length 119 m; draft 9.2 m.

Type: Ship (hazmat cat B). MMSI: 538002900.

Date/timePositionNaut miles runAvg speedWind from/ knotsBaromVisibWave heightAir tempDewpointWater temp
2017-Nov-18 00:48N 29°32' W 094°54'3 9.8
2017-Nov-18 00:30N 29°34' W 094°55'4 8.0
2017-Nov-18 00:00N 29°37' W 094°59'2 4.4
2017-Nov-17 23:31N 29°37' W 095°01'0 0.0
2017-Nov-17 22:56N 29°37' W 095°01'0 0.0
2017-Nov-17 22:30N 29°37' W 095°01'0 0.0
2017-Nov-17 22:00N 29°37' W 095°01'0 0.0
2017-Nov-17 21:30N 29°37' W 095°01'0 0.0
2017-Nov-17 21:00N 29°37' W 095°01'0 0.0
2017-Nov-17 20:30N 29°37' W 095°01'0 0.0
2017-Nov-17 20:00N 29°37' W 095°01'0 0.0
2017-Nov-17 19:30N 29°37' W 095°01'0 0.0
2017-Nov-17 19:00N 29°37' W 095°01'0 0.0
2017-Nov-17 18:30N 29°37' W 095°01'0 0.0
2017-Nov-17 18:00N 29°37' W 095°01'0 0.0
2017-Nov-17 17:30N 29°37' W 095°01'0 0.0
2017-Nov-17 17:00N 29°37' W 095°01'0 0.0
2017-Nov-17 16:30N 29°37' W 095°01'0 0.0
2017-Nov-17 16:00N 29°37' W 095°01'0 0.0
2017-Nov-17 15:30N 29°37' W 095°01'0 0.0
2017-Nov-17 15:00N 29°37' W 095°01'0 0.0
2017-Nov-17 14:30N 29°37' W 095°01'0 0.0
2017-Nov-17 14:00N 29°37' W 095°01'0 0.0
2017-Nov-17 13:30N 29°37' W 095°01'0 0.0
2017-Nov-17 13:00N 29°37' W 095°01'0 0.0
2017-Nov-17 12:30N 29°37' W 095°01'0 0.0
2017-Nov-17 12:00N 29°37' W 095°01'0 0.0
2017-Nov-17 11:30N 29°37' W 095°01'0 0.0
2017-Nov-17 11:00N 29°37' W 095°01'0 0.0
2017-Nov-17 10:30N 29°37' W 095°01'0 0.0
2017-Nov-17 10:00N 29°37' W 095°01'0 0.0
2017-Nov-17 09:30N 29°37' W 095°01'0 0.0
2017-Nov-17 09:00N 29°37' W 095°01'0 0.0
2017-Nov-17 08:30N 29°37' W 095°01'0 0.0
2017-Nov-17 08:00N 29°37' W 095°01'0 0.0
2017-Nov-17 07:30N 29°37' W 095°01'0 0.0
2017-Nov-17 07:00N 29°37' W 095°01'0 0.0
2017-Nov-17 06:30N 29°37' W 095°01'0 0.0
2017-Nov-17 06:00N 29°37' W 095°01'0 0.0
2017-Nov-17 05:30N 29°37' W 095°01'0 0.0
2017-Nov-17 05:00N 29°37' W 095°01'0 0.0
2017-Nov-17 04:30N 29°37' W 095°01'0 0.0
2017-Nov-17 04:00N 29°37' W 095°01'0 0.0
2017-Nov-17 03:30N 29°37' W 095°01'0 0.0
2017-Nov-17 03:00N 29°37' W 095°01'0 0.0
2017-Nov-17 02:30N 29°37' W 095°01'0 0.0
2017-Nov-17 02:00N 29°37' W 095°01'0 0.0
2017-Nov-17 01:30N 29°37' W 095°01'0 0.0
2017-Nov-17 01:00N 29°37' W 095°01'0 0.0
2017-Nov-17 00:30N 29°37' W 095°01'0 0.0
2017-Nov-17 00:00N 29°37' W 095°01'0 0.0
2017-Nov-16 23:30N 29°37' W 095°01'0 0.0
2017-Nov-16 23:00N 29°37' W 095°01'0 0.0
2017-Nov-16 22:30N 29°37' W 095°01'0 0.0
2017-Nov-16 22:00N 29°37' W 095°01'2 4.2
2017-Nov-16 21:30N 29°37' W 094°59'5 9.4
2017-Nov-16 21:00N 29°34' W 094°55'612.0
2017-Nov-16 20:30N 29°28' W 094°51'  
2017-Nov-09 05:41N 29°32' W 094°54'2 9.2
2017-Nov-09 05:30N 29°33' W 094°55'5 9.2
2017-Nov-09 05:00N 29°37' W 094°57'5 9.2
2017-Nov-09 04:30N 29°42' W 094°59'4 7.0
2017-Nov-09 03:53N 29°44' W 095°03'2 5.7
2017-Nov-09 03:30N 29°45' W 095°06'3 5.9
2017-Nov-09 03:00N 29°44' W 095°09'3 5.7
2017-Nov-09 02:30N 29°44' W 095°12'3 5.4
2017-Nov-09 02:00N 29°43' W 095°15'1 2.9
2017-Nov-09 01:30N 29°44' W 095°16'0 0.0
2017-Nov-08 12:05N 29°44' W 095°16'0 0.0
2017-Nov-08 11:59N 29°44' W 095°16'0 0.0
2017-Nov-08 11:29N 29°44' W 095°16'0 0.0
2017-Nov-08 10:59N 29°44' W 095°16'0 0.0
2017-Nov-08 10:03N 29°44' W 095°16'0 0.0
2017-Nov-08 09:51N 29°44' W 095°16'0 0.0
2017-Nov-08 08:39N 29°44' W 095°16'0 0.0
2017-Nov-08 08:27N 29°44' W 095°16'0 0.0
2017-Nov-08 07:59N 29°44' W 095°16'0 0.0
2017-Nov-08 07:27N 29°44' W 095°16'0 0.0
2017-Nov-08 04:09N 29°44' W 095°16'0 0.0
2017-Nov-08 03:54N 29°44' W 095°16'0 0.0
2017-Nov-08 02:54N 29°44' W 095°16'0 0.0
2017-Nov-08 02:29N 29°44' W 095°16'1 1.3
2017-Nov-08 01:56N 29°44' W 095°16'4 5.6
2017-Nov-08 01:08N 29°45' W 095°11'1 6.5
2017-Nov-08 00:59N 29°45' W 095°10'  

Dump ship's entire track history